sensor_id;sensor_type;location;lat;lon;timestamp;P1;durP1;ratioP1;P2;durP2;ratioP2
8803;SDS011;4438;50.890;4.726;2023-04-15T00:00:06;3.90;;;3.50;;
8803;SDS011;4438;50.890;4.726;2023-04-15T00:02:34;4.90;;;3.60;;
8803;SDS011;4438;50.890;4.726;2023-04-15T00:05:01;5.47;;;3.90;;
8803;SDS011;4438;50.890;4.726;2023-04-15T00:07:27;4.00;;;3.53;;
8803;SDS011;4438;50.890;4.726;2023-04-15T00:09:53;4.00;;;3.47;;
8803;SDS011;4438;50.890;4.726;2023-04-15T00:12:22;3.80;;;3.40;;
8803;SDS011;4438;50.890;4.726;2023-04-15T00:14:48;5.50;;;3.60;;
8803;SDS011;4438;50.890;4.726;2023-04-15T00:17:15;5.37;;;3.90;;
8803;SDS011;4438;50.890;4.726;2023-04-15T00:19:41;4.33;;;3.50;;
8803;SDS011;4438;50.890;4.726;2023-04-15T00:22:08;6.53;;;3.70;;
8803;SDS011;4438;50.890;4.726;2023-04-15T00:24:35;5.57;;;3.43;;
8803;SDS011;4438;50.890;4.726;2023-04-15T00:27:01;3.93;;;3.30;;
8803;SDS011;4438;50.890;4.726;2023-04-15T00:29:27;4.37;;;3.53;;
8803;SDS011;4438;50.890;4.726;2023-04-15T00:31:54;3.77;;;3.37;;
8803;SDS011;4438;50.890;4.726;2023-04-15T00:34:21;3.80;;;3.40;;
8803;SDS011;4438;50.890;4.726;2023-04-15T00:36:47;5.33;;;3.53;;
8803;SDS011;4438;50.890;4.726;2023-04-15T00:39:13;4.03;;;3.53;;
8803;SDS011;4438;50.890;4.726;2023-04-15T00:41:40;4.87;;;3.70;;
8803;SDS011;4438;50.890;4.726;2023-04-15T00:44:07;4.47;;;3.33;;
8803;SDS011;4438;50.890;4.726;2023-04-15T00:46:37;5.13;;;3.83;;
8803;SDS011;4438;50.890;4.726;2023-04-15T00:49:04;3.93;;;3.53;;
8803;SDS011;4438;50.890;4.726;2023-04-15T00:51:31;5.50;;;3.53;;
8803;SDS011;4438;50.890;4.726;2023-04-15T00:54:00;4.80;;;3.90;;
8803;SDS011;4438;50.890;4.726;2023-04-15T00:56:26;5.30;;;4.43;;
8803;SDS011;4438;50.890;4.726;2023-04-15T00:58:53;5.80;;;4.20;;
8803;SDS011;4438;50.890;4.726;2023-04-15T01:01:20;7.67;;;5.10;;
8803;SDS011;4438;50.890;4.726;2023-04-15T01:03:47;4.10;;;3.70;;
8803;SDS011;4438;50.890;4.726;2023-04-15T01:06:14;5.23;;;4.07;;
8803;SDS011;4438;50.890;4.726;2023-04-15T01:08:40;5.37;;;4.77;;
8803;SDS011;4438;50.890;4.726;2023-04-15T01:11:07;5.63;;;5.03;;
8803;SDS011;4438;50.890;4.726;2023-04-15T01:13:33;5.07;;;4.47;;
8803;SDS011;4438;50.890;4.726;2023-04-15T01:15:59;5.73;;;4.30;;
8803;SDS011;4438;50.890;4.726;2023-04-15T01:18:26;6.23;;;4.50;;
8803;SDS011;4438;50.890;4.726;2023-04-15T01:20:53;4.07;;;3.67;;
8803;SDS011;4438;50.890;4.726;2023-04-15T01:23:20;5.43;;;3.70;;
8803;SDS011;4438;50.890;4.726;2023-04-15T01:25:49;4.47;;;4.07;;
8803;SDS011;4438;50.890;4.726;2023-04-15T01:28:16;6.10;;;3.87;;
8803;SDS011;4438;50.890;4.726;2023-04-15T01:30:42;4.77;;;3.80;;
8803;SDS011;4438;50.890;4.726;2023-04-15T01:33:08;5.70;;;4.10;;
8803;SDS011;4438;50.890;4.726;2023-04-15T01:35:35;4.67;;;3.73;;
8803;SDS011;4438;50.890;4.726;2023-04-15T01:38:05;4.87;;;3.80;;
8803;SDS011;4438;50.890;4.726;2023-04-15T01:40:31;4.47;;;4.07;;
8803;SDS011;4438;50.890;4.726;2023-04-15T01:42:58;5.00;;;4.50;;
8803;SDS011;4438;50.890;4.726;2023-04-15T01:45:24;5.30;;;4.00;;
8803;SDS011;4438;50.890;4.726;2023-04-15T01:47:50;4.30;;;3.90;;
8803;SDS011;4438;50.890;4.726;2023-04-15T01:50:16;4.43;;;4.00;;
8803;SDS011;4438;50.890;4.726;2023-04-15T01:52:43;6.47;;;4.57;;
8803;SDS011;4438;50.890;4.726;2023-04-15T01:55:09;7.17;;;4.50;;
8803;SDS011;4438;50.890;4.726;2023-04-15T01:57:35;5.57;;;4.20;;
8803;SDS011;4438;50.890;4.726;2023-04-15T02:00:01;6.17;;;5.03;;
8803;SDS011;4438;50.890;4.726;2023-04-15T02:02:28;5.27;;;4.40;;
8803;SDS011;4438;50.890;4.726;2023-04-15T02:04:54;5.50;;;4.73;;
8803;SDS011;4438;50.890;4.726;2023-04-15T02:07:20;5.33;;;4.50;;
8803;SDS011;4438;50.890;4.726;2023-04-15T02:09:47;5.43;;;4.30;;
8803;SDS011;4438;50.890;4.726;2023-04-15T02:12:13;5.20;;;4.70;;
8803;SDS011;4438;50.890;4.726;2023-04-15T02:14:40;6.23;;;5.13;;
8803;SDS011;4438;50.890;4.726;2023-04-15T02:17:06;5.40;;;4.80;;
8803;SDS011;4438;50.890;4.726;2023-04-15T02:19:35;7.17;;;5.00;;
8803;SDS011;4438;50.890;4.726;2023-04-15T02:22:01;6.43;;;4.47;;
8803;SDS011;4438;50.890;4.726;2023-04-15T02:24:28;5.37;;;4.53;;
8803;SDS011;4438;50.890;4.726;2023-04-15T02:26:55;5.00;;;4.50;;
8803;SDS011;4438;50.890;4.726;2023-04-15T02:29:21;5.17;;;4.43;;
8803;SDS011;4438;50.890;4.726;2023-04-15T02:31:48;4.97;;;4.50;;
8803;SDS011;4438;50.890;4.726;2023-04-15T02:34:14;5.00;;;4.30;;
8803;SDS011;4438;50.890;4.726;2023-04-15T02:36:40;4.90;;;4.37;;
8803;SDS011;4438;50.890;4.726;2023-04-15T02:39:06;5.93;;;4.23;;
8803;SDS011;4438;50.890;4.726;2023-04-15T02:41:32;5.97;;;4.30;;
8803;SDS011;4438;50.890;4.726;2023-04-15T02:43:59;4.87;;;4.37;;
8803;SDS011;4438;50.890;4.726;2023-04-15T02:46:25;5.63;;;5.00;;
8803;SDS011;4438;50.890;4.726;2023-04-15T02:48:51;5.60;;;4.03;;
8803;SDS011;4438;50.890;4.726;2023-04-15T02:51:18;6.20;;;4.40;;
8803;SDS011;4438;50.890;4.726;2023-04-15T02:53:48;4.73;;;4.13;;
8803;SDS011;4438;50.890;4.726;2023-04-15T02:56:14;6.97;;;4.73;;
8803;SDS011;4438;50.890;4.726;2023-04-15T02:58:42;5.53;;;4.53;;
8803;SDS011;4438;50.890;4.726;2023-04-15T03:01:09;6.33;;;4.63;;
8803;SDS011;4438;50.890;4.726;2023-04-15T03:03:35;5.97;;;4.70;;
8803;SDS011;4438;50.890;4.726;2023-04-15T03:06:01;6.07;;;4.60;;
8803;SDS011;4438;50.890;4.726;2023-04-15T03:08:28;5.37;;;4.87;;
8803;SDS011;4438;50.890;4.726;2023-04-15T03:10:54;5.20;;;4.70;;
8803;SDS011;4438;50.890;4.726;2023-04-15T03:13:20;5.20;;;4.70;;
8803;SDS011;4438;50.890;4.726;2023-04-15T03:15:46;5.27;;;4.60;;
8803;SDS011;4438;50.890;4.726;2023-04-15T03:18:12;5.57;;;4.67;;
8803;SDS011;4438;50.890;4.726;2023-04-15T03:20:39;6.70;;;4.60;;
8803;SDS011;4438;50.890;4.726;2023-04-15T03:23:05;5.00;;;4.50;;
8803;SDS011;4438;50.890;4.726;2023-04-15T03:25:31;5.07;;;4.50;;
8803;SDS011;4438;50.890;4.726;2023-04-15T03:27:58;5.83;;;4.70;;
8803;SDS011;4438;50.890;4.726;2023-04-15T03:30:24;5.30;;;4.63;;
8803;SDS011;4438;50.890;4.726;2023-04-15T03:32:50;5.27;;;4.30;;
8803;SDS011;4438;50.890;4.726;2023-04-15T03:35:16;6.07;;;4.77;;
8803;SDS011;4438;50.890;4.726;2023-04-15T03:37:42;6.07;;;4.20;;
8803;SDS011;4438;50.890;4.726;2023-04-15T03:40:09;6.27;;;5.10;;
8803;SDS011;4438;50.890;4.726;2023-04-15T03:42:35;7.03;;;4.80;;
8803;SDS011;4438;50.890;4.726;2023-04-15T03:45:01;5.23;;;4.80;;
8803;SDS011;4438;50.890;4.726;2023-04-15T03:47:28;6.40;;;5.37;;
8803;SDS011;4438;50.890;4.726;2023-04-15T03:49:54;6.23;;;5.10;;
8803;SDS011;4438;50.890;4.726;2023-04-15T03:52:20;5.80;;;5.20;;
8803;SDS011;4438;50.890;4.726;2023-04-15T03:54:46;5.90;;;4.90;;
8803;SDS011;4438;50.890;4.726;2023-04-15T03:57:12;6.30;;;5.50;;
8803;SDS011;4438;50.890;4.726;2023-04-15T03:59:38;7.83;;;5.50;;
8803;SDS011;4438;50.890;4.726;2023-04-15T04:02:04;6.07;;;5.23;;
8803;SDS011;4438;50.890;4.726;2023-04-15T04:04:30;5.10;;;4.60;;
8803;SDS011;4438;50.890;4.726;2023-04-15T04:06:56;4.87;;;4.37;;
8803;SDS011;4438;50.890;4.726;2023-04-15T04:09:22;5.67;;;5.10;;
8803;SDS011;4438;50.890;4.726;2023-04-15T04:11:49;5.20;;;4.70;;
8803;SDS011;4438;50.890;4.726;2023-04-15T04:14:15;5.23;;;4.73;;
8803;SDS011;4438;50.890;4.726;2023-04-15T04:16:41;5.63;;;4.80;;
8803;SDS011;4438;50.890;4.726;2023-04-15T04:19:08;6.20;;;5.03;;
8803;SDS011;4438;50.890;4.726;2023-04-15T04:21:34;7.07;;;5.00;;
8803;SDS011;4438;50.890;4.726;2023-04-15T04:24:00;5.33;;;4.60;;
8803;SDS011;4438;50.890;4.726;2023-04-15T04:26:27;5.37;;;4.87;;
8803;SDS011;4438;50.890;4.726;2023-04-15T04:28:53;5.87;;;5.10;;
8803;SDS011;4438;50.890;4.726;2023-04-15T04:31:19;5.40;;;4.90;;
8803;SDS011;4438;50.890;4.726;2023-04-15T04:33:45;7.00;;;5.20;;
8803;SDS011;4438;50.890;4.726;2023-04-15T04:36:11;6.37;;;5.60;;
8803;SDS011;4438;50.890;4.726;2023-04-15T04:38:37;6.07;;;4.77;;
8803;SDS011;4438;50.890;4.726;2023-04-15T04:41:03;5.37;;;4.83;;
8803;SDS011;4438;50.890;4.726;2023-04-15T04:43:29;5.50;;;5.00;;
8803;SDS011;4438;50.890;4.726;2023-04-15T04:45:55;5.13;;;4.63;;
8803;SDS011;4438;50.890;4.726;2023-04-15T04:48:22;6.13;;;5.20;;
8803;SDS011;4438;50.890;4.726;2023-04-15T04:50:48;6.50;;;5.20;;
8803;SDS011;4438;50.890;4.726;2023-04-15T04:53:14;5.93;;;5.13;;
8803;SDS011;4438;50.890;4.726;2023-04-15T04:55:40;5.90;;;4.83;;
8803;SDS011;4438;50.890;4.726;2023-04-15T04:58:06;6.37;;;5.60;;
8803;SDS011;4438;50.890;4.726;2023-04-15T05:00:32;7.20;;;5.77;;
8803;SDS011;4438;50.890;4.726;2023-04-15T05:02:58;6.93;;;5.53;;
8803;SDS011;4438;50.890;4.726;2023-04-15T05:05:25;7.63;;;5.63;;
8803;SDS011;4438;50.890;4.726;2023-04-15T05:07:51;6.73;;;5.47;;
8803;SDS011;4438;50.890;4.726;2023-04-15T05:10:17;6.10;;;5.50;;
8803;SDS011;4438;50.890;4.726;2023-04-15T05:12:43;7.70;;;5.60;;
8803;SDS011;4438;50.890;4.726;2023-04-15T05:15:09;6.63;;;5.60;;
8803;SDS011;4438;50.890;4.726;2023-04-15T05:17:36;5.53;;;4.70;;
8803;SDS011;4438;50.890;4.726;2023-04-15T05:20:02;5.50;;;4.97;;
8803;SDS011;4438;50.890;4.726;2023-04-15T05:22:28;8.80;;;5.87;;
8803;SDS011;4438;50.890;4.726;2023-04-15T05:24:54;7.03;;;5.80;;
8803;SDS011;4438;50.890;4.726;2023-04-15T05:27:20;5.70;;;5.17;;
8803;SDS011;4438;50.890;4.726;2023-04-15T05:29:48;7.17;;;5.53;;
8803;SDS011;4438;50.890;4.726;2023-04-15T05:32:14;6.97;;;5.67;;
8803;SDS011;4438;50.890;4.726;2023-04-15T05:34:40;7.17;;;6.00;;
8803;SDS011;4438;50.890;4.726;2023-04-15T05:37:06;7.17;;;6.37;;
8803;SDS011;4438;50.890;4.726;2023-04-15T05:39:32;8.50;;;5.80;;
8803;SDS011;4438;50.890;4.726;2023-04-15T05:41:58;6.43;;;5.83;;
8803;SDS011;4438;50.890;4.726;2023-04-15T05:44:24;7.30;;;5.33;;
8803;SDS011;4438;50.890;4.726;2023-04-15T05:46:50;6.47;;;5.67;;
8803;SDS011;4438;50.890;4.726;2023-04-15T05:49:17;6.77;;;5.77;;
8803;SDS011;4438;50.890;4.726;2023-04-15T05:51:43;6.80;;;5.90;;
8803;SDS011;4438;50.890;4.726;2023-04-15T05:54:09;6.97;;;6.00;;
8803;SDS011;4438;50.890;4.726;2023-04-15T05:56:36;7.57;;;5.97;;
8803;SDS011;4438;50.890;4.726;2023-04-15T05:59:02;7.07;;;5.90;;
8803;SDS011;4438;50.890;4.726;2023-04-15T06:01:28;8.40;;;5.97;;
8803;SDS011;4438;50.890;4.726;2023-04-15T06:03:54;6.53;;;5.47;;
8803;SDS011;4438;50.890;4.726;2023-04-15T06:06:20;6.30;;;5.70;;
8803;SDS011;4438;50.890;4.726;2023-04-15T06:08:47;8.40;;;6.07;;
8803;SDS011;4438;50.890;4.726;2023-04-15T06:11:13;7.83;;;5.83;;
8803;SDS011;4438;50.890;4.726;2023-04-15T06:13:39;8.23;;;5.90;;
8803;SDS011;4438;50.890;4.726;2023-04-15T06:16:05;8.00;;;6.50;;
8803;SDS011;4438;50.890;4.726;2023-04-15T06:18:32;7.10;;;6.30;;
8803;SDS011;4438;50.890;4.726;2023-04-15T06:20:58;8.13;;;6.00;;
8803;SDS011;4438;50.890;4.726;2023-04-15T06:23:24;7.97;;;5.67;;
8803;SDS011;4438;50.890;4.726;2023-04-15T06:25:50;9.27;;;6.70;;
8803;SDS011;4438;50.890;4.726;2023-04-15T06:28:16;7.07;;;5.77;;
8803;SDS011;4438;50.890;4.726;2023-04-15T06:30:42;8.43;;;6.53;;
8803;SDS011;4438;50.890;4.726;2023-04-15T06:33:08;6.60;;;5.93;;
8803;SDS011;4438;50.890;4.726;2023-04-15T06:35:34;9.07;;;6.00;;
8803;SDS011;4438;50.890;4.726;2023-04-15T06:38:01;6.80;;;6.10;;
8803;SDS011;4438;50.890;4.726;2023-04-15T06:40:27;7.60;;;6.40;;
8803;SDS011;4438;50.890;4.726;2023-04-15T06:42:53;8.00;;;6.60;;
8803;SDS011;4438;50.890;4.726;2023-04-15T06:45:20;7.73;;;6.20;;
8803;SDS011;4438;50.890;4.726;2023-04-15T06:47:46;8.60;;;6.53;;
8803;SDS011;4438;50.890;4.726;2023-04-15T06:50:12;7.13;;;6.43;;
8803;SDS011;4438;50.890;4.726;2023-04-15T06:52:38;8.73;;;6.93;;
8803;SDS011;4438;50.890;4.726;2023-04-15T06:55:05;7.53;;;6.33;;
8803;SDS011;4438;50.890;4.726;2023-04-15T06:57:32;8.67;;;6.60;;
8803;SDS011;4438;50.890;4.726;2023-04-15T06:59:58;7.67;;;6.53;;
8803;SDS011;4438;50.890;4.726;2023-04-15T07:02:25;7.83;;;6.67;;
8803;SDS011;4438;50.890;4.726;2023-04-15T07:04:51;7.93;;;6.60;;
8803;SDS011;4438;50.890;4.726;2023-04-15T07:07:17;11.73;;;7.47;;
8803;SDS011;4438;50.890;4.726;2023-04-15T07:09:43;9.97;;;7.10;;
8803;SDS011;4438;50.890;4.726;2023-04-15T07:12:09;9.30;;;7.47;;
8803;SDS011;4438;50.890;4.726;2023-04-15T07:14:36;8.57;;;7.67;;
8803;SDS011;4438;50.890;4.726;2023-04-15T07:17:02;11.90;;;7.80;;
8803;SDS011;4438;50.890;4.726;2023-04-15T07:19:28;8.63;;;7.20;;
8803;SDS011;4438;50.890;4.726;2023-04-15T07:21:54;10.07;;;7.60;;
8803;SDS011;4438;50.890;4.726;2023-04-15T07:24:20;10.07;;;8.33;;
8803;SDS011;4438;50.890;4.726;2023-04-15T07:26:50;8.00;;;7.20;;
8803;SDS011;4438;50.890;4.726;2023-04-15T07:29:17;8.00;;;7.20;;
8803;SDS011;4438;50.890;4.726;2023-04-15T07:31:43;10.67;;;8.00;;
8803;SDS011;4438;50.890;4.726;2023-04-15T07:34:09;9.40;;;7.93;;
8803;SDS011;4438;50.890;4.726;2023-04-15T07:36:35;8.87;;;7.87;;
8803;SDS011;4438;50.890;4.726;2023-04-15T07:39:01;11.37;;;8.37;;
8803;SDS011;4438;50.890;4.726;2023-04-15T07:41:28;9.23;;;8.20;;
8803;SDS011;4438;50.890;4.726;2023-04-15T07:43:55;11.97;;;8.63;;
8803;SDS011;4438;50.890;4.726;2023-04-15T07:46:21;10.37;;;8.00;;
8803;SDS011;4438;50.890;4.726;2023-04-15T07:48:51;9.00;;;7.87;;
8803;SDS011;4438;50.890;4.726;2023-04-15T07:51:18;9.00;;;7.70;;
8803;SDS011;4438;50.890;4.726;2023-04-15T07:53:45;8.90;;;7.93;;
8803;SDS011;4438;50.890;4.726;2023-04-15T07:56:11;10.23;;;7.40;;
8803;SDS011;4438;50.890;4.726;2023-04-15T07:58:37;9.80;;;7.20;;
8803;SDS011;4438;50.890;4.726;2023-04-15T08:01:04;9.47;;;7.47;;
8803;SDS011;4438;50.890;4.726;2023-04-15T08:03:30;8.67;;;7.60;;
8803;SDS011;4438;50.890;4.726;2023-04-15T08:05:57;7.70;;;6.87;;
8803;SDS011;4438;50.890;4.726;2023-04-15T08:08:23;8.40;;;7.03;;
8803;SDS011;4438;50.890;4.726;2023-04-15T08:10:50;9.93;;;7.10;;
8803;SDS011;4438;50.890;4.726;2023-04-15T08:13:16;7.40;;;6.43;;
8803;SDS011;4438;50.890;4.726;2023-04-15T08:15:43;8.97;;;7.10;;
8803;SDS011;4438;50.890;4.726;2023-04-15T08:18:09;8.53;;;7.40;;
8803;SDS011;4438;50.890;4.726;2023-04-15T08:20:35;9.07;;;7.40;;
8803;SDS011;4438;50.890;4.726;2023-04-15T08:23:01;10.50;;;7.47;;
8803;SDS011;4438;50.890;4.726;2023-04-15T08:25:28;10.07;;;7.33;;
8803;SDS011;4438;50.890;4.726;2023-04-15T08:27:54;10.23;;;7.70;;
8803;SDS011;4438;50.890;4.726;2023-04-15T08:30:24;8.13;;;7.10;;
8803;SDS011;4438;50.890;4.726;2023-04-15T08:32:50;10.33;;;6.57;;
8803;SDS011;4438;50.890;4.726;2023-04-15T08:35:16;10.17;;;8.03;;
8803;SDS011;4438;50.890;4.726;2023-04-15T08:37:42;8.73;;;6.93;;
8803;SDS011;4438;50.890;4.726;2023-04-15T08:40:09;9.93;;;7.23;;
8803;SDS011;4438;50.890;4.726;2023-04-15T08:42:36;10.30;;;8.33;;
8803;SDS011;4438;50.890;4.726;2023-04-15T08:45:03;10.20;;;8.90;;
8803;SDS011;4438;50.890;4.726;2023-04-15T08:47:30;14.27;;;11.00;;
8803;SDS011;4438;50.890;4.726;2023-04-15T08:49:56;14.20;;;10.80;;
8803;SDS011;4438;50.890;4.726;2023-04-15T08:52:25;15.57;;;11.90;;
8803;SDS011;4438;50.890;4.726;2023-04-15T08:54:54;14.87;;;11.20;;
8803;SDS011;4438;50.890;4.726;2023-04-15T08:57:24;14.30;;;12.80;;
8803;SDS011;4438;50.890;4.726;2023-04-15T08:59:51;13.13;;;10.70;;
8803;SDS011;4438;50.890;4.726;2023-04-15T09:02:17;14.70;;;11.67;;
8803;SDS011;4438;50.890;4.726;2023-04-15T09:04:44;12.23;;;11.03;;
8803;SDS011;4438;50.890;4.726;2023-04-15T09:07:10;14.47;;;10.70;;
8803;SDS011;4438;50.890;4.726;2023-04-15T09:09:36;12.43;;;11.10;;
8803;SDS011;4438;50.890;4.726;2023-04-15T09:12:04;12.93;;;11.63;;
8803;SDS011;4438;50.890;4.726;2023-04-15T09:14:30;12.63;;;11.33;;
8803;SDS011;4438;50.890;4.726;2023-04-15T09:17:02;10.47;;;9.20;;
8803;SDS011;4438;50.890;4.726;2023-04-15T09:19:29;13.20;;;9.93;;
8803;SDS011;4438;50.890;4.726;2023-04-15T09:21:56;11.17;;;9.63;;
8803;SDS011;4438;50.890;4.726;2023-04-15T09:24:23;10.40;;;8.97;;
8803;SDS011;4438;50.890;4.726;2023-04-15T09:26:53;11.40;;;8.70;;
8803;SDS011;4438;50.890;4.726;2023-04-15T09:29:20;12.43;;;9.37;;
8803;SDS011;4438;50.890;4.726;2023-04-15T09:31:48;9.90;;;8.83;;
8803;SDS011;4438;50.890;4.726;2023-04-15T09:34:15;10.03;;;8.93;;
8803;SDS011;4438;50.890;4.726;2023-04-15T09:39:11;9.80;;;7.77;;
8803;SDS011;4438;50.890;4.726;2023-04-15T09:41:37;9.17;;;8.27;;
8803;SDS011;4438;50.890;4.726;2023-04-15T09:44:03;8.13;;;7.33;;
8803;SDS011;4438;50.890;4.726;2023-04-15T09:46:42;7.40;;;6.70;;
8803;SDS011;4438;50.890;4.726;2023-04-15T09:49:09;9.57;;;6.90;;
8803;SDS011;4438;50.890;4.726;2023-04-15T09:51:36;7.67;;;6.93;;
8803;SDS011;4438;50.890;4.726;2023-04-15T09:54:02;7.60;;;6.80;;
8803;SDS011;4438;50.890;4.726;2023-04-15T09:56:35;7.80;;;6.00;;
8803;SDS011;4438;50.890;4.726;2023-04-15T09:59:10;6.87;;;5.07;;
8803;SDS011;4438;50.890;4.726;2023-04-15T10:01:37;6.83;;;6.13;;
8803;SDS011;4438;50.890;4.726;2023-04-15T10:04:03;8.47;;;5.87;;
8803;SDS011;4438;50.890;4.726;2023-04-15T10:06:29;5.90;;;5.33;;
8803;SDS011;4438;50.890;4.726;2023-04-15T10:08:56;5.37;;;4.87;;
8803;SDS011;4438;50.890;4.726;2023-04-15T10:11:22;5.33;;;4.83;;
8803;SDS011;4438;50.890;4.726;2023-04-15T10:13:49;6.50;;;4.67;;
8803;SDS011;4438;50.890;4.726;2023-04-15T10:16:17;6.70;;;5.17;;
8803;SDS011;4438;50.890;4.726;2023-04-15T10:18:52;6.07;;;4.57;;
8803;SDS011;4438;50.890;4.726;2023-04-15T10:21:19;4.50;;;4.10;;
8803;SDS011;4438;50.890;4.726;2023-04-15T10:23:47;5.23;;;3.97;;
8803;SDS011;4438;50.890;4.726;2023-04-15T10:26:14;5.50;;;4.27;;
8803;SDS011;4438;50.890;4.726;2023-04-15T10:28:42;4.83;;;4.10;;
8803;SDS011;4438;50.890;4.726;2023-04-15T10:31:08;4.93;;;4.17;;
8803;SDS011;4438;50.890;4.726;2023-04-15T10:33:36;7.10;;;4.57;;
8803;SDS011;4438;50.890;4.726;2023-04-15T10:36:03;4.97;;;4.57;;
8803;SDS011;4438;50.890;4.726;2023-04-15T10:38:37;6.13;;;4.70;;
8803;SDS011;4438;50.890;4.726;2023-04-15T10:41:23;6.40;;;4.50;;
8803;SDS011;4438;50.890;4.726;2023-04-15T10:43:54;6.13;;;4.33;;
8803;SDS011;4438;50.890;4.726;2023-04-15T10:46:35;4.30;;;3.90;;
8803;SDS011;4438;50.890;4.726;2023-04-15T10:49:15;4.07;;;3.67;;
8803;SDS011;4438;50.890;4.726;2023-04-15T10:51:45;4.47;;;4.07;;
8803;SDS011;4438;50.890;4.726;2023-04-15T10:54:15;4.40;;;3.93;;
8803;SDS011;4438;50.890;4.726;2023-04-15T10:56:43;5.30;;;4.27;;
8803;SDS011;4438;50.890;4.726;2023-04-15T10:59:09;5.00;;;4.23;;
8803;SDS011;4438;50.890;4.726;2023-04-15T11:10:02;4.50;;;4.07;;
8803;SDS011;4438;50.890;4.726;2023-04-15T11:12:35;4.30;;;3.90;;
8803;SDS011;4438;50.890;4.726;2023-04-15T11:17:46;3.37;;;3.00;;
8803;SDS011;4438;50.890;4.726;2023-04-15T11:20:15;3.30;;;3.00;;
8803;SDS011;4438;50.890;4.726;2023-04-15T11:22:52;3.63;;;3.33;;
8803;SDS011;4438;50.890;4.726;2023-04-15T11:25:25;3.93;;;3.30;;
8803;SDS011;4438;50.890;4.726;2023-04-15T11:27:52;6.80;;;3.63;;
8803;SDS011;4438;50.890;4.726;2023-04-15T11:30:22;13.90;;;4.90;;
8803;SDS011;4438;50.890;4.726;2023-04-15T11:32:49;8.57;;;4.07;;
8803;SDS011;4438;50.890;4.726;2023-04-15T11:35:15;6.27;;;3.50;;
8803;SDS011;4438;50.890;4.726;2023-04-15T11:37:45;3.63;;;3.33;;
8803;SDS011;4438;50.890;4.726;2023-04-15T11:40:12;5.30;;;3.23;;
8803;SDS011;4438;50.890;4.726;2023-04-15T11:42:39;4.13;;;3.63;;
8803;SDS011;4438;50.890;4.726;2023-04-15T11:45:12;4.37;;;3.83;;
8803;SDS011;4438;50.890;4.726;2023-04-15T11:47:39;3.83;;;3.03;;
8803;SDS011;4438;50.890;4.726;2023-04-15T11:50:15;3.30;;;3.00;;
8803;SDS011;4438;50.890;4.726;2023-04-15T11:52:54;5.77;;;3.57;;
8803;SDS011;4438;50.890;4.726;2023-04-15T11:55:21;5.17;;;3.47;;
8803;SDS011;4438;50.890;4.726;2023-04-15T11:57:49;22.00;;;6.00;;
8803;SDS011;4438;50.890;4.726;2023-04-15T12:00:15;20.33;;;5.10;;
8803;SDS011;4438;50.890;4.726;2023-04-15T12:02:42;13.60;;;4.00;;
8803;SDS011;4438;50.890;4.726;2023-04-15T12:05:08;59.83;;;8.27;;
8803;SDS011;4438;50.890;4.726;2023-04-15T12:10:23;38.70;;;7.80;;
8803;SDS011;4438;50.890;4.726;2023-04-15T12:12:51;14.80;;;4.00;;
8803;SDS011;4438;50.890;4.726;2023-04-15T12:15:20;16.77;;;4.60;;
8803;SDS011;4438;50.890;4.726;2023-04-15T12:17:48;60.47;;;10.13;;
8803;SDS011;4438;50.890;4.726;2023-04-15T12:20:19;119.37;;;14.83;;
8803;SDS011;4438;50.890;4.726;2023-04-15T12:22:46;87.10;;;11.77;;
8803;SDS011;4438;50.890;4.726;2023-04-15T12:25:12;17.93;;;4.57;;
8803;SDS011;4438;50.890;4.726;2023-04-15T12:27:38;7.80;;;3.60;;
8803;SDS011;4438;50.890;4.726;2023-04-15T12:30:05;4.50;;;3.07;;
8803;SDS011;4438;50.890;4.726;2023-04-15T12:32:34;3.33;;;2.57;;
8803;SDS011;4438;50.890;4.726;2023-04-15T12:35:01;5.90;;;2.63;;
8803;SDS011;4438;50.890;4.726;2023-04-15T12:37:27;3.87;;;2.40;;
8803;SDS011;4438;50.890;4.726;2023-04-15T12:39:53;3.40;;;2.37;;
8803;SDS011;4438;50.890;4.726;2023-04-15T12:42:19;2.80;;;2.03;;
8803;SDS011;4438;50.890;4.726;2023-04-15T12:44:46;2.47;;;1.93;;
8803;SDS011;4438;50.890;4.726;2023-04-15T12:47:13;4.03;;;2.00;;
8803;SDS011;4438;50.890;4.726;2023-04-15T12:49:39;7.17;;;2.17;;
8803;SDS011;4438;50.890;4.726;2023-04-15T12:52:05;2.20;;;1.87;;
8803;SDS011;4438;50.890;4.726;2023-04-15T12:54:31;3.30;;;2.07;;
8803;SDS011;4438;50.890;4.726;2023-04-15T12:56:58;1.60;;;1.50;;
8803;SDS011;4438;50.890;4.726;2023-04-15T12:59:25;13.87;;;3.30;;
8803;SDS011;4438;50.890;4.726;2023-04-15T13:01:51;4.57;;;2.10;;
8803;SDS011;4438;50.890;4.726;2023-04-15T13:04:18;2.40;;;1.90;;
8803;SDS011;4438;50.890;4.726;2023-04-15T13:06:44;2.40;;;2.20;;
8803;SDS011;4438;50.890;4.726;2023-04-15T13:09:10;2.27;;;2.00;;
8803;SDS011;4438;50.890;4.726;2023-04-15T13:11:36;2.63;;;2.00;;
8803;SDS011;4438;50.890;4.726;2023-04-15T13:14:03;3.30;;;1.90;;
8803;SDS011;4438;50.890;4.726;2023-04-15T13:16:30;2.67;;;2.40;;
8803;SDS011;4438;50.890;4.726;2023-04-15T13:18:59;3.30;;;2.40;;
8803;SDS011;4438;50.890;4.726;2023-04-15T13:21:26;2.30;;;2.10;;
8803;SDS011;4438;50.890;4.726;2023-04-15T13:23:52;2.17;;;1.97;;
8803;SDS011;4438;50.890;4.726;2023-04-15T13:26:18;3.17;;;2.37;;
8803;SDS011;4438;50.890;4.726;2023-04-15T13:28:44;2.53;;;2.30;;
8803;SDS011;4438;50.890;4.726;2023-04-15T13:31:11;4.27;;;2.47;;
8803;SDS011;4438;50.890;4.726;2023-04-15T13:33:37;2.77;;;1.97;;
8803;SDS011;4438;50.890;4.726;2023-04-15T13:36:03;3.93;;;2.43;;
8803;SDS011;4438;50.890;4.726;2023-04-15T13:38:29;2.50;;;2.10;;
8803;SDS011;4438;50.890;4.726;2023-04-15T13:40:55;3.03;;;1.97;;
8803;SDS011;4438;50.890;4.726;2023-04-15T13:43:21;4.27;;;2.13;;
8803;SDS011;4438;50.890;4.726;2023-04-15T13:45:47;3.73;;;2.30;;
8803;SDS011;4438;50.890;4.726;2023-04-15T13:48:13;3.10;;;2.10;;
8803;SDS011;4438;50.890;4.726;2023-04-15T13:50:39;3.40;;;2.10;;
8803;SDS011;4438;50.890;4.726;2023-04-15T13:53:09;2.50;;;2.00;;
8803;SDS011;4438;50.890;4.726;2023-04-15T13:55:35;3.37;;;2.20;;
8803;SDS011;4438;50.890;4.726;2023-04-15T13:58:05;2.73;;;2.10;;
8803;SDS011;4438;50.890;4.726;2023-04-15T14:00:31;3.67;;;2.30;;
8803;SDS011;4438;50.890;4.726;2023-04-15T14:02:57;3.80;;;2.40;;
8803;SDS011;4438;50.890;4.726;2023-04-15T14:05:23;2.87;;;2.57;;
8803;SDS011;4438;50.890;4.726;2023-04-15T14:07:49;2.60;;;2.30;;
8803;SDS011;4438;50.890;4.726;2023-04-15T14:10:15;4.53;;;2.40;;
8803;SDS011;4438;50.890;4.726;2023-04-15T14:12:41;3.07;;;2.00;;
8803;SDS011;4438;50.890;4.726;2023-04-15T14:15:08;3.50;;;2.57;;
8803;SDS011;4438;50.890;4.726;2023-04-15T14:17:34;3.17;;;2.67;;
8803;SDS011;4438;50.890;4.726;2023-04-15T14:20:00;3.07;;;2.20;;
8803;SDS011;4438;50.890;4.726;2023-04-15T14:22:26;5.13;;;2.60;;
8803;SDS011;4438;50.890;4.726;2023-04-15T14:24:52;5.77;;;2.70;;
8803;SDS011;4438;50.890;4.726;2023-04-15T14:27:19;2.43;;;2.17;;
8803;SDS011;4438;50.890;4.726;2023-04-15T14:29:46;3.50;;;2.23;;
8803;SDS011;4438;50.890;4.726;2023-04-15T14:32:12;3.73;;;2.03;;
8803;SDS011;4438;50.890;4.726;2023-04-15T14:34:38;2.97;;;1.77;;
8803;SDS011;4438;50.890;4.726;2023-04-15T14:37:04;1.80;;;1.70;;
8803;SDS011;4438;50.890;4.726;2023-04-15T14:39:30;5.33;;;2.40;;
8803;SDS011;4438;50.890;4.726;2023-04-15T14:41:57;4.13;;;2.00;;
8803;SDS011;4438;50.890;4.726;2023-04-15T14:44:23;3.53;;;2.37;;
8803;SDS011;4438;50.890;4.726;2023-04-15T14:46:49;3.30;;;2.23;;
8803;SDS011;4438;50.890;4.726;2023-04-15T14:49:16;3.40;;;2.27;;
8803;SDS011;4438;50.890;4.726;2023-04-15T14:51:42;2.40;;;2.20;;
8803;SDS011;4438;50.890;4.726;2023-04-15T14:54:08;3.07;;;2.10;;
8803;SDS011;4438;50.890;4.726;2023-04-15T14:56:34;2.03;;;1.60;;
8803;SDS011;4438;50.890;4.726;2023-04-15T14:59:00;3.27;;;2.30;;
8803;SDS011;4438;50.890;4.726;2023-04-15T15:01:26;2.50;;;1.80;;
8803;SDS011;4438;50.890;4.726;2023-04-15T15:03:54;2.70;;;1.40;;
8803;SDS011;4438;50.890;4.726;2023-04-15T15:06:20;1.50;;;1.40;;
8803;SDS011;4438;50.890;4.726;2023-04-15T15:08:47;3.03;;;2.03;;
8803;SDS011;4438;50.890;4.726;2023-04-15T15:11:13;2.43;;;1.40;;
8803;SDS011;4438;50.890;4.726;2023-04-15T15:13:40;1.63;;;1.50;;
8803;SDS011;4438;50.890;4.726;2023-04-15T15:16:06;2.03;;;1.50;;
8803;SDS011;4438;50.890;4.726;2023-04-15T15:18:32;1.70;;;1.60;;
8803;SDS011;4438;50.890;4.726;2023-04-15T15:20:58;2.03;;;1.70;;
8803;SDS011;4438;50.890;4.726;2023-04-15T15:23:24;1.80;;;1.50;;
8803;SDS011;4438;50.890;4.726;2023-04-15T15:25:50;2.70;;;1.67;;